Ray, Illinois
Current Conditions -  °F | °C
As of 12:15 AM on Tuesday 21 Oct 2014 (Local Time) from KMQB Reporting Station
Clear Clear  
Wind Chill: 43°   Ceiling: Unl
Heat Index: 46°   Visibility: 10mi
Dew Point: 42°   Wind: 6mph
Humidity: 85%   Direction: 330°NNW
Pressure: 30.03"   Gusts: NA
Location:  40.1451°N, 90.5648°W
Report Text: KMQB 210515Z AUTO 33005KT 10SM CLR 08/05 A3003 RMK AO2 T00780054
Loading
Personal Weather Stations






























Interactive Weather Map
Tropical Storm Tracking
New forecast layout! Learn more

10-Day Weather Forecast

Advertisements
Track Severe Weather on mobile